Flight Track Log - Related Links

Times and Time Zones

All times are in EDT time to prevent confusion due to time zone crossing. See the CLH304 flight status page for this flight to view local times or setup timezone preferences in your user account.


Time Position Orientation Groundspeed Altitude Reporting Facility
EDT Latitude Longitude Course Direction KTS MPH feet Rate Location/Type
Fri 03:17:00 PM 49.7053 8.4782 187° South  Level Estimated
Fri 03:18:00 PM 49.5982 8.4568 187° South  Level Estimated
Fri 03:19:00 PM 49.4912 8.4354 187° South  Level Estimated
Fri 03:20:00 PM 49.3841 8.4142 187° South  Level Estimated
Fri 03:21:00 PM 49.2770 8.3930 187° South  Level Estimated
Fri 03:22:00 PM 49.1700 8.3719 187° South  Level Estimated
Fri 03:23:00 PM 49.0629 8.3510 187° South  Level Estimated
Fri 03:24:00 PM 48.9558 8.3301 187° South  Level Estimated
Fri 03:25:00 PM 48.8487 8.3093 187° South  Level Estimated
Fri 03:26:00 PM 48.7417 8.2886 187° South  Level Estimated
Fri 03:27:00 PM 48.6346 8.2679 187° South  Level Estimated
Fri 03:28:00 PM 48.5275 8.2474 187° South  Level Estimated
Fri 03:29:00 PM 48.4204 8.2269 187° South  Level Estimated
Fri 03:30:00 PM 48.3133 8.2066 187° South  Level Estimated
Fri 03:31:00 PM 48.2062 8.1863 187° South  Level Estimated
Fri 03:32:00 PM 48.0991 8.1661 187° South  Level Estimated
Fri 03:33:00 PM 47.9920 8.1460 187° South  Level Estimated
Fri 03:34:00 PM 47.8848 8.1259 187° South  Level Estimated
Fri 03:35:00 PM 47.7777 8.1060 187° South  Level Estimated
Fri 03:36:00 PM 47.6706 8.0861 187° South  Level Estimated
Fri 03:37:00 PM 47.5635 8.0664 187° South  Level Estimated
Fri 03:38:00 PM 47.4564 8.0467 187° South  Level Estimated
Fri 03:39:00 PM 47.3492 8.0270 187° South  Level Estimated
Fri 03:40:00 PM 47.2421 8.0075 187° South  Level Estimated
Fri 03:41:00 PM 47.1185 7.9851 187° South  Level Estimated
Fri 03:42:00 PM 46.9949 7.9627 187° South  Level Estimated
Fri 03:43:00 PM 46.8712 7.9405 187° South  Level Estimated
Fri 03:44:00 PM 46.7476 7.9183 187° South  Level Estimated
Fri 03:45:00 PM 46.6240 7.8963 187° South  Level Estimated
Fri 03:46:00 PM 46.5003 7.8743 187° South  Level Estimated
Fri 03:47:00 PM 46.3767 7.8525 187° South  Level Estimated
Fri 03:48:00 PM 46.2530 7.8308 187° South  Level Estimated
Fri 03:49:00 PM 46.1294 7.8091 187° South  Level Estimated
Fri 03:50:00 PM 46.0057 7.7876 187° South  Level Estimated
Fri 03:51:00 PM 45.8820 7.7661 187° South  Level Estimated
Fri 03:52:00 PM 45.7584 7.7448 187° South  Level Estimated
Fri 03:53:00 PM 45.6347 7.7235 187° South  Level Estimated
Fri 03:54:00 PM 45.5110 7.7023 187° South  Level Estimated
Fri 03:55:00 PM 45.3874 7.6813 187° South  Level Estimated
Fri 03:56:00 PM 45.2637 7.6603 187° South  Level Estimated
Fri 03:57:00 PM 45.2008 7.6496 187° South  Level Estimated
Fri 03:58:00 PM 45.2008 7.6496 35° Northeast  Level Estimated
Fri 03:59:00 PM 45.2008 7.6496 35° Northeast  Level Estimated
Fri 04:00:00 PM 45.2008 7.6496 35° Northeast  Level Estimated
Fri 04:01:00 PM 45.2008 7.6496 35° Northeast  Level Estimated
Fri 04:02:00 PM 45.2008 7.6496 35° Northeast  Level Estimated
Fri 04:03:00 PM 45.2008 7.6496 35° Northeast  Level Estimated
Fri 04:04:00 PM 45.2008 7.6496 35° Northeast  Level Estimated

Login

Don't have an account? Register now (free) for customized features, flight alerts, and more!